sensor_id;sensor_type;location;lat;lon;timestamp;P1;durP1;ratioP1;P2;durP2;ratioP2
41289;SDS011;36117;46.680;11.154;2022-11-20T00:03:34;1.80;;;0.68;;
41289;SDS011;36117;46.680;11.154;2022-11-20T00:06:04;0.77;;;0.38;;
41289;SDS011;36117;46.680;11.154;2022-11-20T00:08:32;0.45;;;0.43;;
41289;SDS011;36117;46.680;11.154;2022-11-20T00:11:02;0.13;;;0.13;;
41289;SDS011;36117;46.680;11.154;2022-11-20T00:13:32;1.88;;;1.00;;
41289;SDS011;36117;46.680;11.154;2022-11-20T00:15:59;0.30;;;0.30;;
41289;SDS011;36117;46.680;11.154;2022-11-20T00:18:26;0.30;;;0.30;;
41289;SDS011;36117;46.680;11.154;2022-11-20T00:21:29;0.45;;;0.43;;
41289;SDS011;36117;46.680;11.154;2022-11-20T00:23:50;0.90;;;0.30;;
41289;SDS011;36117;46.680;11.154;2022-11-20T00:26:18;0.30;;;0.30;;
41289;SDS011;36117;46.680;11.154;2022-11-20T00:28:49;0.32;;;0.30;;
41289;SDS011;36117;46.680;11.154;2022-11-20T00:31:17;0.25;;;0.25;;
41289;SDS011;36117;46.680;11.154;2022-11-20T00:33:43;1.10;;;0.50;;
41289;SDS011;36117;46.680;11.154;2022-11-20T00:36:10;2.28;;;0.82;;
41289;SDS011;36117;46.680;11.154;2022-11-20T00:41:08;1.40;;;0.90;;
41289;SDS011;36117;46.680;11.154;2022-11-20T00:43:36;0.70;;;0.50;;
41289;SDS011;36117;46.680;11.154;2022-11-20T00:46:06;1.23;;;0.47;;
41289;SDS011;36117;46.680;11.154;2022-11-20T00:48:40;0.77;;;0.77;;
41289;SDS011;36117;46.680;11.154;2022-11-20T00:51:06;1.38;;;0.68;;
41289;SDS011;36117;46.680;11.154;2022-11-20T00:53:33;1.85;;;0.80;;
41289;SDS011;36117;46.680;11.154;2022-11-20T00:56:03;0.57;;;0.57;;
41289;SDS011;36117;46.680;11.154;2022-11-20T00:58:32;0.20;;;0.20;;
41289;SDS011;36117;46.680;11.154;2022-11-20T01:01:10;0.90;;;0.40;;
41289;SDS011;36117;46.680;11.154;2022-11-20T01:03:41;0.30;;;0.30;;
41289;SDS011;36117;46.680;11.154;2022-11-20T01:06:12;0.20;;;0.20;;
41289;SDS011;36117;46.680;11.154;2022-11-20T01:08:39;0.50;;;0.50;;
41289;SDS011;36117;46.680;11.154;2022-11-20T01:11:06;1.38;;;0.75;;
41289;SDS011;36117;46.680;11.154;2022-11-20T01:13:35;0.35;;;0.35;;
41289;SDS011;36117;46.680;11.154;2022-11-20T01:16:13;0.13;;;0.13;;
41289;SDS011;36117;46.680;11.154;2022-11-20T01:18:41;0.30;;;0.30;;
41289;SDS011;36117;46.680;11.154;2022-11-20T01:21:10;0.73;;;0.40;;
41289;SDS011;36117;46.680;11.154;2022-11-20T01:23:38;0.50;;;0.50;;
41289;SDS011;36117;46.680;11.154;2022-11-20T01:26:12;0.65;;;0.65;;
41289;SDS011;36117;46.680;11.154;2022-11-20T01:28:40;4.72;;;1.08;;
41289;SDS011;36117;46.680;11.154;2022-11-20T01:31:13;4.82;;;0.28;;
41289;SDS011;36117;46.680;11.154;2022-11-20T01:33:43;0.82;;;0.68;;
41289;SDS011;36117;46.680;11.154;2022-11-20T01:36:10;0.47;;;0.22;;
41289;SDS011;36117;46.680;11.154;2022-11-20T01:38:37;0.30;;;0.20;;
41289;SDS011;36117;46.680;11.154;2022-11-20T01:41:03;0.40;;;0.40;;
41289;SDS011;36117;46.680;11.154;2022-11-20T01:43:30;0.32;;;0.32;;
41289;SDS011;36117;46.680;11.154;2022-11-20T01:48:36;1.55;;;0.30;;
41289;SDS011;36117;46.680;11.154;2022-11-20T01:51:12;1.02;;;0.90;;
41289;SDS011;36117;46.680;11.154;2022-11-20T01:53:44;0.20;;;0.20;;
41289;SDS011;36117;46.680;11.154;2022-11-20T01:56:11;0.30;;;0.30;;
41289;SDS011;36117;46.680;11.154;2022-11-20T01:58:39;1.55;;;0.77;;
41289;SDS011;36117;46.680;11.154;2022-11-20T02:01:12;0.38;;;0.38;;
41289;SDS011;36117;46.680;11.154;2022-11-20T02:03:38;1.77;;;0.85;;
41289;SDS011;36117;46.680;11.154;2022-11-20T02:06:07;0.70;;;0.60;;
41289;SDS011;36117;46.680;11.154;2022-11-20T02:11:12;0.25;;;0.25;;
41289;SDS011;36117;46.680;11.154;2022-11-20T02:13:38;0.52;;;0.40;;
41289;SDS011;36117;46.680;11.154;2022-11-20T02:16:32;0.60;;;0.52;;
41289;SDS011;36117;46.680;11.154;2022-11-20T02:19:01;0.30;;;0.30;;
41289;SDS011;36117;46.680;11.154;2022-11-20T02:21:37;0.40;;;0.25;;
41289;SDS011;36117;46.680;11.154;2022-11-20T02:29:42;0.30;;;0.30;;
41289;SDS011;36117;46.680;11.154;2022-11-20T02:32:20;0.65;;;0.65;;
41289;SDS011;36117;46.680;11.154;2022-11-20T02:34:48;0.75;;;0.60;;
41289;SDS011;36117;46.680;11.154;2022-11-20T02:37:14;2.53;;;0.65;;
41289;SDS011;36117;46.680;11.154;2022-11-20T02:39:41;0.22;;;0.22;;
41289;SDS011;36117;46.680;11.154;2022-11-20T02:42:08;1.70;;;0.45;;
41289;SDS011;36117;46.680;11.154;2022-11-20T02:44:34;0.25;;;0.25;;
41289;SDS011;36117;46.680;11.154;2022-11-20T02:46:59;0.10;;;0.10;;
41289;SDS011;36117;46.680;11.154;2022-11-20T02:49:25;0.32;;;0.32;;
41289;SDS011;36117;46.680;11.154;2022-11-20T02:51:51;0.20;;;0.20;;
41289;SDS011;36117;46.680;11.154;2022-11-20T02:54:17;0.20;;;0.20;;
41289;SDS011;36117;46.680;11.154;2022-11-20T02:56:43;0.22;;;0.22;;
41289;SDS011;36117;46.680;11.154;2022-11-20T02:59:08;0.40;;;0.40;;
41289;SDS011;36117;46.680;11.154;2022-11-20T03:01:35;0.47;;;0.47;;
41289;SDS011;36117;46.680;11.154;2022-11-20T03:04:01;0.65;;;0.63;;
41289;SDS011;36117;46.680;11.154;2022-11-20T03:06:27;0.85;;;0.52;;
41289;SDS011;36117;46.680;11.154;2022-11-20T03:08:53;0.40;;;0.40;;
41289;SDS011;36117;46.680;11.154;2022-11-20T03:11:19;0.13;;;0.13;;
41289;SDS011;36117;46.680;11.154;2022-11-20T03:13:45;0.38;;;0.38;;
41289;SDS011;36117;46.680;11.154;2022-11-20T03:16:12;0.20;;;0.20;;
41289;SDS011;36117;46.680;11.154;2022-11-20T03:18:40;0.13;;;0.13;;
41289;SDS011;36117;46.680;11.154;2022-11-20T03:21:07;0.30;;;0.30;;
41289;SDS011;36117;46.680;11.154;2022-11-20T03:23:34;0.30;;;0.30;;
41289;SDS011;36117;46.680;11.154;2022-11-20T03:26:11;0.63;;;0.63;;
41289;SDS011;36117;46.680;11.154;2022-11-20T03:28:39;0.30;;;0.30;;
41289;SDS011;36117;46.680;11.154;2022-11-20T03:31:06;0.30;;;0.30;;
41289;SDS011;36117;46.680;11.154;2022-11-20T03:33:36;3.00;;;0.73;;
41289;SDS011;36117;46.680;11.154;2022-11-20T03:36:06;0.65;;;0.40;;
41289;SDS011;36117;46.680;11.154;2022-11-20T03:38:33;0.13;;;0.13;;
41289;SDS011;36117;46.680;11.154;2022-11-20T03:41:04;0.63;;;0.38;;
41289;SDS011;36117;46.680;11.154;2022-11-20T03:43:34;1.60;;;0.90;;
41289;SDS011;36117;46.680;11.154;2022-11-20T03:46:01;0.20;;;0.20;;
41289;SDS011;36117;46.680;11.154;2022-11-20T03:48:27;0.88;;;0.45;;
41289;SDS011;36117;46.680;11.154;2022-11-20T03:51:05;0.30;;;0.30;;
41289;SDS011;36117;46.680;11.154;2022-11-20T03:53:33;0.52;;;0.40;;
41289;SDS011;36117;46.680;11.154;2022-11-20T03:55:58;0.10;;;0.10;;
41289;SDS011;36117;46.680;11.154;2022-11-20T03:58:24;0.15;;;0.15;;
41289;SDS011;36117;46.680;11.154;2022-11-20T04:00:49;0.10;;;0.10;;
41289;SDS011;36117;46.680;11.154;2022-11-20T04:03:15;0.28;;;0.28;;
41289;SDS011;36117;46.680;11.154;2022-11-20T04:05:41;2.55;;;0.55;;
41289;SDS011;36117;46.680;11.154;2022-11-20T04:08:06;0.28;;;0.22;;
41289;SDS011;36117;46.680;11.154;2022-11-20T04:10:32;0.20;;;0.20;;
41289;SDS011;36117;46.680;11.154;2022-11-20T04:12:58;8.00;;;0.95;;
41289;SDS011;36117;46.680;11.154;2022-11-20T04:15:24;0.22;;;0.20;;
41289;SDS011;36117;46.680;11.154;2022-11-20T04:17:49;0.30;;;0.30;;
41289;SDS011;36117;46.680;11.154;2022-11-20T04:20:15;4.32;;;0.55;;
41289;SDS011;36117;46.680;11.154;2022-11-20T04:22:41;0.60;;;0.32;;
41289;SDS011;36117;46.680;11.154;2022-11-20T04:25:07;2.45;;;1.15;;
41289;SDS011;36117;46.680;11.154;2022-11-20T04:27:33;0.15;;;0.15;;
41289;SDS011;36117;46.680;11.154;2022-11-20T04:29:59;0.10;;;0.10;;
41289;SDS011;36117;46.680;11.154;2022-11-20T04:32:24;0.20;;;0.20;;
41289;SDS011;36117;46.680;11.154;2022-11-20T04:34:50;0.90;;;0.63;;
41289;SDS011;36117;46.680;11.154;2022-11-20T04:37:15;0.90;;;0.68;;
41289;SDS011;36117;46.680;11.154;2022-11-20T04:39:41;1.00;;;0.68;;
41289;SDS011;36117;46.680;11.154;2022-11-20T04:42:08;0.50;;;0.50;;
41289;SDS011;36117;46.680;11.154;2022-11-20T04:44:53;0.60;;;0.55;;
41289;SDS011;36117;46.680;11.154;2022-11-20T04:47:19;0.75;;;0.43;;
41289;SDS011;36117;46.680;11.154;2022-11-20T04:49:45;0.25;;;0.25;;
41289;SDS011;36117;46.680;11.154;2022-11-20T04:52:11;2.53;;;0.73;;
41289;SDS011;36117;46.680;11.154;2022-11-20T04:54:37;1.35;;;0.73;;
41289;SDS011;36117;46.680;11.154;2022-11-20T04:57:03;0.98;;;0.45;;
41289;SDS011;36117;46.680;11.154;2022-11-20T04:59:28;0.20;;;0.20;;
41289;SDS011;36117;46.680;11.154;2022-11-20T05:01:54;1.08;;;0.45;;
41289;SDS011;36117;46.680;11.154;2022-11-20T05:04:20;0.43;;;0.20;;
41289;SDS011;36117;46.680;11.154;2022-11-20T05:06:45;0.80;;;0.80;;
41289;SDS011;36117;46.680;11.154;2022-11-20T05:09:12;0.30;;;0.30;;
41289;SDS011;36117;46.680;11.154;2022-11-20T05:11:37;0.80;;;0.80;;
41289;SDS011;36117;46.680;11.154;2022-11-20T05:14:03;0.55;;;0.55;;
41289;SDS011;36117;46.680;11.154;2022-11-20T05:16:29;0.57;;;0.57;;
41289;SDS011;36117;46.680;11.154;2022-11-20T05:18:55;0.77;;;0.70;;
41289;SDS011;36117;46.680;11.154;2022-11-20T05:21:21;0.32;;;0.32;;
41289;SDS011;36117;46.680;11.154;2022-11-20T05:23:47;0.68;;;0.68;;
41289;SDS011;36117;46.680;11.154;2022-11-20T05:26:14;0.73;;;0.73;;
41289;SDS011;36117;46.680;11.154;2022-11-20T05:28:43;0.20;;;0.20;;
41289;SDS011;36117;46.680;11.154;2022-11-20T05:31:09;0.20;;;0.20;;
41289;SDS011;36117;46.680;11.154;2022-11-20T05:33:39;0.25;;;0.25;;
41289;SDS011;36117;46.680;11.154;2022-11-20T05:36:07;8.32;;;1.25;;
41289;SDS011;36117;46.680;11.154;2022-11-20T05:38:33;0.30;;;0.30;;
41289;SDS011;36117;46.680;11.154;2022-11-20T05:41:18;0.55;;;0.55;;
41289;SDS011;36117;46.680;11.154;2022-11-20T05:43:45;0.20;;;0.20;;
41289;SDS011;36117;46.680;11.154;2022-11-20T05:46:12;1.67;;;0.35;;
41289;SDS011;36117;46.680;11.154;2022-11-20T05:48:40;0.40;;;0.40;;
41289;SDS011;36117;46.680;11.154;2022-11-20T05:51:11;0.40;;;0.40;;
41289;SDS011;36117;46.680;11.154;2022-11-20T05:53:39;0.35;;;0.32;;
41289;SDS011;36117;46.680;11.154;2022-11-20T05:56:07;0.20;;;0.20;;
41289;SDS011;36117;46.680;11.154;2022-11-20T05:58:37;0.25;;;0.25;;
41289;SDS011;36117;46.680;11.154;2022-11-20T06:01:07;0.88;;;0.68;;
41289;SDS011;36117;46.680;11.154;2022-11-20T06:03:34;0.20;;;0.20;;
41289;SDS011;36117;46.680;11.154;2022-11-20T06:06:01;0.73;;;0.73;;
41289;SDS011;36117;46.680;11.154;2022-11-20T06:08:28;0.80;;;0.52;;
41289;SDS011;36117;46.680;11.154;2022-11-20T06:10:54;0.17;;;0.17;;
41289;SDS011;36117;46.680;11.154;2022-11-20T06:13:19;1.75;;;1.10;;
41289;SDS011;36117;46.680;11.154;2022-11-20T06:15:52;0.40;;;0.40;;
41289;SDS011;36117;46.680;11.154;2022-11-20T06:18:18;1.00;;;0.75;;
41289;SDS011;36117;46.680;11.154;2022-11-20T06:20:44;0.30;;;0.30;;
41289;SDS011;36117;46.680;11.154;2022-11-20T06:23:10;2.83;;;1.17;;
41289;SDS011;36117;46.680;11.154;2022-11-20T06:25:39;0.65;;;0.52;;
41289;SDS011;36117;46.680;11.154;2022-11-20T06:28:06;0.38;;;0.38;;
41289;SDS011;36117;46.680;11.154;2022-11-20T06:30:32;0.47;;;0.47;;
41289;SDS011;36117;46.680;11.154;2022-11-20T06:32:58;0.45;;;0.45;;
41289;SDS011;36117;46.680;11.154;2022-11-20T06:35:24;6.30;;;1.33;;
41289;SDS011;36117;46.680;11.154;2022-11-20T06:37:50;2.67;;;1.23;;
41289;SDS011;36117;46.680;11.154;2022-11-20T06:40:15;0.60;;;0.60;;
41289;SDS011;36117;46.680;11.154;2022-11-20T06:42:41;1.55;;;0.60;;
41289;SDS011;36117;46.680;11.154;2022-11-20T06:45:07;0.60;;;0.60;;
41289;SDS011;36117;46.680;11.154;2022-11-20T06:47:33;0.20;;;0.20;;
41289;SDS011;36117;46.680;11.154;2022-11-20T06:49:59;0.55;;;0.55;;
41289;SDS011;36117;46.680;11.154;2022-11-20T06:52:25;0.20;;;0.20;;
41289;SDS011;36117;46.680;11.154;2022-11-20T06:54:51;2.00;;;1.30;;
41289;SDS011;36117;46.680;11.154;2022-11-20T06:57:16;1.35;;;1.25;;
41289;SDS011;36117;46.680;11.154;2022-11-20T06:59:42;1.05;;;1.05;;
41289;SDS011;36117;46.680;11.154;2022-11-20T07:02:11;3.97;;;0.85;;
41289;SDS011;36117;46.680;11.154;2022-11-20T07:04:37;0.45;;;0.45;;
41289;SDS011;36117;46.680;11.154;2022-11-20T07:07:04;1.73;;;0.93;;
41289;SDS011;36117;46.680;11.154;2022-11-20T07:09:31;0.82;;;0.82;;
41289;SDS011;36117;46.680;11.154;2022-11-20T07:11:57;1.50;;;1.20;;
41289;SDS011;36117;46.680;11.154;2022-11-20T07:14:23;0.82;;;0.82;;
41289;SDS011;36117;46.680;11.154;2022-11-20T07:16:48;3.38;;;1.88;;
41289;SDS011;36117;46.680;11.154;2022-11-20T07:19:14;2.90;;;1.52;;
41289;SDS011;36117;46.680;11.154;2022-11-20T07:21:40;1.20;;;0.95;;
41289;SDS011;36117;46.680;11.154;2022-11-20T07:24:06;1.65;;;1.35;;
41289;SDS011;36117;46.680;11.154;2022-11-20T07:26:32;1.15;;;0.98;;
41289;SDS011;36117;46.680;11.154;2022-11-20T07:28:58;1.45;;;1.35;;
41289;SDS011;36117;46.680;11.154;2022-11-20T07:31:23;5.93;;;1.48;;
41289;SDS011;36117;46.680;11.154;2022-11-20T07:33:50;0.88;;;0.88;;
41289;SDS011;36117;46.680;11.154;2022-11-20T07:36:16;6.10;;;1.83;;
41289;SDS011;36117;46.680;11.154;2022-11-20T07:38:41;2.20;;;1.35;;
41289;SDS011;36117;46.680;11.154;2022-11-20T07:41:07;5.93;;;3.45;;
41289;SDS011;36117;46.680;11.154;2022-11-20T07:43:33;3.28;;;1.50;;
41289;SDS011;36117;46.680;11.154;2022-11-20T07:45:58;3.72;;;2.80;;
41289;SDS011;36117;46.680;11.154;2022-11-20T07:48:25;4.07;;;2.25;;
41289;SDS011;36117;46.680;11.154;2022-11-20T07:50:56;3.03;;;1.67;;
41289;SDS011;36117;46.680;11.154;2022-11-20T07:53:23;1.35;;;1.25;;
41289;SDS011;36117;46.680;11.154;2022-11-20T07:55:49;4.55;;;1.40;;
41289;SDS011;36117;46.680;11.154;2022-11-20T07:58:17;0.45;;;0.45;;
41289;SDS011;36117;46.680;11.154;2022-11-20T08:00:44;1.75;;;0.93;;
41289;SDS011;36117;46.680;11.154;2022-11-20T08:03:10;1.85;;;1.45;;
41289;SDS011;36117;46.680;11.154;2022-11-20T08:05:36;5.47;;;1.75;;
41289;SDS011;36117;46.680;11.154;2022-11-20T08:08:02;1.58;;;1.33;;
41289;SDS011;36117;46.680;11.154;2022-11-20T08:10:28;6.07;;;1.42;;
41289;SDS011;36117;46.680;11.154;2022-11-20T08:12:54;1.27;;;0.98;;
41289;SDS011;36117;46.680;11.154;2022-11-20T08:15:39;3.20;;;1.05;;
41289;SDS011;36117;46.680;11.154;2022-11-20T08:18:06;1.05;;;0.82;;
41289;SDS011;36117;46.680;11.154;2022-11-20T08:20:34;2.05;;;1.20;;
41289;SDS011;36117;46.680;11.154;2022-11-20T08:23:04;2.38;;;1.08;;
41289;SDS011;36117;46.680;11.154;2022-11-20T08:25:31;1.30;;;0.93;;
41289;SDS011;36117;46.680;11.154;2022-11-20T08:27:59;2.85;;;1.05;;
41289;SDS011;36117;46.680;11.154;2022-11-20T08:30:25;2.38;;;0.93;;
41289;SDS011;36117;46.680;11.154;2022-11-20T08:32:52;1.15;;;1.05;;
41289;SDS011;36117;46.680;11.154;2022-11-20T08:35:18;1.40;;;1.00;;
41289;SDS011;36117;46.680;11.154;2022-11-20T08:37:47;3.97;;;1.58;;
41289;SDS011;36117;46.680;11.154;2022-11-20T08:40:14;3.72;;;1.10;;
41289;SDS011;36117;46.680;11.154;2022-11-20T08:42:47;2.05;;;1.20;;
41289;SDS011;36117;46.680;11.154;2022-11-20T08:45:14;1.83;;;0.82;;
41289;SDS011;36117;46.680;11.154;2022-11-20T08:47:40;1.90;;;0.85;;
41289;SDS011;36117;46.680;11.154;2022-11-20T08:50:06;1.67;;;0.93;;
41289;SDS011;36117;46.680;11.154;2022-11-20T08:52:33;1.85;;;1.17;;
41289;SDS011;36117;46.680;11.154;2022-11-20T08:54:59;1.85;;;1.08;;
41289;SDS011;36117;46.680;11.154;2022-11-20T08:57:24;1.90;;;1.25;;
41289;SDS011;36117;46.680;11.154;2022-11-20T08:59:50;2.25;;;1.73;;
41289;SDS011;36117;46.680;11.154;2022-11-20T09:02:16;3.28;;;1.40;;
41289;SDS011;36117;46.680;11.154;2022-11-20T09:04:41;6.05;;;1.67;;
41289;SDS011;36117;46.680;11.154;2022-11-20T09:07:07;1.67;;;1.02;;
41289;SDS011;36117;46.680;11.154;2022-11-20T09:09:33;2.30;;;0.85;;
41289;SDS011;36117;46.680;11.154;2022-11-20T09:11:59;2.72;;;0.40;;
41289;SDS011;36117;46.680;11.154;2022-11-20T09:14:24;5.93;;;0.70;;
41289;SDS011;36117;46.680;11.154;2022-11-20T09:16:54;1.95;;;1.00;;
41289;SDS011;36117;46.680;11.154;2022-11-20T09:19:20;2.65;;;0.93;;
41289;SDS011;36117;46.680;11.154;2022-11-20T09:21:46;5.63;;;1.83;;
41289;SDS011;36117;46.680;11.154;2022-11-20T09:24:11;2.47;;;0.90;;
41289;SDS011;36117;46.680;11.154;2022-11-20T09:26:37;1.52;;;1.00;;
41289;SDS011;36117;46.680;11.154;2022-11-20T09:29:03;2.25;;;1.23;;
41289;SDS011;36117;46.680;11.154;2022-11-20T09:31:28;2.35;;;1.02;;
41289;SDS011;36117;46.680;11.154;2022-11-20T09:33:54;2.00;;;1.33;;
41289;SDS011;36117;46.680;11.154;2022-11-20T09:36:20;1.38;;;0.98;;
41289;SDS011;36117;46.680;11.154;2022-11-20T09:38:45;5.63;;;1.20;;
41289;SDS011;36117;46.680;11.154;2022-11-20T09:44:26;2.33;;;1.63;;
41289;SDS011;36117;46.680;11.154;2022-11-20T09:47:14;2.10;;;1.20;;
41289;SDS011;36117;46.680;11.154;2022-11-20T09:49:59;1.52;;;1.30;;
41289;SDS011;36117;46.680;11.154;2022-11-20T09:52:47;1.38;;;0.70;;
41289;SDS011;36117;46.680;11.154;2022-11-20T09:55:29;2.22;;;0.80;;
41289;SDS011;36117;46.680;11.154;2022-11-20T09:57:56;1.33;;;1.00;;
41289;SDS011;36117;46.680;11.154;2022-11-20T10:00:24;0.75;;;0.57;;
41289;SDS011;36117;46.680;11.154;2022-11-20T10:05:48;0.50;;;0.50;;
41289;SDS011;36117;46.680;11.154;2022-11-20T10:17:11;26.08;;;6.93;;
41289;SDS011;36117;46.680;11.154;2022-11-20T10:19:58;1.85;;;0.60;;
41289;SDS011;36117;46.680;11.154;2022-11-20T10:23:04;1.48;;;0.65;;
41289;SDS011;36117;46.680;11.154;2022-11-20T10:25:49;1.35;;;0.73;;
41289;SDS011;36117;46.680;11.154;2022-11-20T10:31:00;1.80;;;0.50;;
41289;SDS011;36117;46.680;11.154;2022-11-20T10:33:33;16.23;;;4.28;;
41289;SDS011;36117;46.680;11.154;2022-11-20T10:38:50;0.57;;;0.38;;
41289;SDS011;36117;46.680;11.154;2022-11-20T10:41:24;4.30;;;2.05;;
41289;SDS011;36117;46.680;11.154;2022-11-20T10:47:05;1.23;;;0.77;;
41289;SDS011;36117;46.680;11.154;2022-11-20T10:49:34;0.30;;;0.30;;
41289;SDS011;36117;46.680;11.154;2022-11-20T11:00:07;0.82;;;0.30;;
41289;SDS011;36117;46.680;11.154;2022-11-20T11:08:01;0.70;;;0.40;;
41289;SDS011;36117;46.680;11.154;2022-11-20T11:10:37;0.47;;;0.40;;
41289;SDS011;36117;46.680;11.154;2022-11-20T11:13:18;1.42;;;0.73;;
41289;SDS011;36117;46.680;11.154;2022-11-20T11:15:48;0.38;;;0.28;;
41289;SDS011;36117;46.680;11.154;2022-11-20T11:18:33;0.47;;;0.47;;
41289;SDS011;36117;46.680;11.154;2022-11-20T11:21:01;0.45;;;0.45;;
41289;SDS011;36117;46.680;11.154;2022-11-20T11:23:32;0.45;;;0.43;;
41289;SDS011;36117;46.680;11.154;2022-11-20T11:26:02;0.30;;;0.30;;
41289;SDS011;36117;46.680;11.154;2022-11-20T11:28:30;0.73;;;0.63;;
41289;SDS011;36117;46.680;11.154;2022-11-20T11:30:56;3.42;;;0.77;;
41289;SDS011;36117;46.680;11.154;2022-11-20T11:33:26;0.32;;;0.32;;
41289;SDS011;36117;46.680;11.154;2022-11-20T11:38:39;0.50;;;0.43;;
41289;SDS011;36117;46.680;11.154;2022-11-20T11:41:09;0.63;;;0.38;;
41289;SDS011;36117;46.680;11.154;2022-11-20T11:43:55;2.03;;;0.60;;
41289;SDS011;36117;46.680;11.154;2022-11-20T11:46:59;0.63;;;0.63;;
41289;SDS011;36117;46.680;11.154;2022-11-20T11:49:26;1.73;;;0.80;;
41289;SDS011;36117;46.680;11.154;2022-11-20T11:52:02;0.57;;;0.30;;
41289;SDS011;36117;46.680;11.154;2022-11-20T11:54:55;1.52;;;0.60;;
41289;SDS011;36117;46.680;11.154;2022-11-20T12:00:15;0.82;;;0.50;;
41289;SDS011;36117;46.680;11.154;2022-11-20T12:10:45;1.35;;;0.65;;
41289;SDS011;36117;46.680;11.154;2022-11-20T12:15:58;0.57;;;0.50;;
41289;SDS011;36117;46.680;11.154;2022-11-20T12:18:24;1.08;;;0.50;;
41289;SDS011;36117;46.680;11.154;2022-11-20T12:29:32;0.90;;;0.20;;
41289;SDS011;36117;46.680;11.154;2022-11-20T12:32:23;1.40;;;0.85;;
41289;SDS011;36117;46.680;11.154;2022-11-20T12:53:09;1.63;;;0.75;;
41289;SDS011;36117;46.680;11.154;2022-11-20T12:55:49;1.85;;;0.60;;
41289;SDS011;36117;46.680;11.154;2022-11-20T13:01:25;0.70;;;0.70;;
41289;SDS011;36117;46.680;11.154;2022-11-20T13:06:57;2.05;;;1.17;;
41289;SDS011;36117;46.680;11.154;2022-11-20T13:09:25;2.08;;;0.60;;
41289;SDS011;36117;46.680;11.154;2022-11-20T13:17:59;0.60;;;0.35;;
41289;SDS011;36117;46.680;11.154;2022-11-20T13:22:57;0.40;;;0.38;;
41289;SDS011;36117;46.680;11.154;2022-11-20T13:25:28;0.95;;;0.60;;
41289;SDS011;36117;46.680;11.154;2022-11-20T13:27:56;0.70;;;0.38;;
41289;SDS011;36117;46.680;11.154;2022-11-20T13:30:24;0.73;;;0.63;;
41289;SDS011;36117;46.680;11.154;2022-11-20T13:32:54;2.60;;;1.15;;
41289;SDS011;36117;46.680;11.154;2022-11-20T13:35:31;1.10;;;0.50;;
41289;SDS011;36117;46.680;11.154;2022-11-20T13:38:09;1.52;;;1.00;;
41289;SDS011;36117;46.680;11.154;2022-11-20T13:40:52;0.20;;;0.20;;
41289;SDS011;36117;46.680;11.154;2022-11-20T13:43:22;1.27;;;0.70;;
41289;SDS011;36117;46.680;11.154;2022-11-20T13:45:58;0.95;;;0.65;;
41289;SDS011;36117;46.680;11.154;2022-11-20T13:48:27;3.85;;;0.95;;
41289;SDS011;36117;46.680;11.154;2022-11-20T13:53:43;2.42;;;1.30;;
41289;SDS011;36117;46.680;11.154;2022-11-20T14:02:20;2.78;;;1.55;;
41289;SDS011;36117;46.680;11.154;2022-11-20T14:04:48;2.35;;;1.27;;
41289;SDS011;36117;46.680;11.154;2022-11-20T14:07:18;4.07;;;1.40;;
41289;SDS011;36117;46.680;11.154;2022-11-20T14:09:53;0.82;;;0.80;;
41289;SDS011;36117;46.680;11.154;2022-11-20T14:12:27;1.45;;;0.80;;
41289;SDS011;36117;46.680;11.154;2022-11-20T14:14:55;1.77;;;0.98;;
41289;SDS011;36117;46.680;11.154;2022-11-20T14:17:22;3.85;;;1.67;;
41289;SDS011;36117;46.680;11.154;2022-11-20T14:20:01;2.15;;;1.20;;
41289;SDS011;36117;46.680;11.154;2022-11-20T14:22:33;1.15;;;0.68;;
41289;SDS011;36117;46.680;11.154;2022-11-20T14:27:44;2.03;;;0.90;;
41289;SDS011;36117;46.680;11.154;2022-11-20T14:30:17;2.30;;;0.90;;
41289;SDS011;36117;46.680;11.154;2022-11-20T14:32:46;0.85;;;0.85;;
41289;SDS011;36117;46.680;11.154;2022-11-20T14:37:52;3.47;;;1.27;;
41289;SDS011;36117;46.680;11.154;2022-11-20T14:40:28;3.70;;;1.77;;
41289;SDS011;36117;46.680;11.154;2022-11-20T14:42:56;3.53;;;1.80;;
41289;SDS011;36117;46.680;11.154;2022-11-20T14:45:22;4.93;;;1.83;;
41289;SDS011;36117;46.680;11.154;2022-11-20T14:47:51;5.15;;;2.70;;
41289;SDS011;36117;46.680;11.154;2022-11-20T14:50:26;1.95;;;1.60;;
41289;SDS011;36117;46.680;11.154;2022-11-20T14:52:54;7.80;;;2.30;;
41289;SDS011;36117;46.680;11.154;2022-11-20T14:55:35;3.73;;;1.87;;
41289;SDS011;36117;46.680;11.154;2022-11-20T14:58:03;4.97;;;2.25;;
41289;SDS011;36117;46.680;11.154;2022-11-20T15:00:31;4.35;;;2.00;;
41289;SDS011;36117;46.680;11.154;2022-11-20T15:02:59;2.58;;;2.13;;
41289;SDS011;36117;46.680;11.154;2022-11-20T15:05:25;4.70;;;2.70;;
41289;SDS011;36117;46.680;11.154;2022-11-20T15:08:12;9.73;;;3.97;;
41289;SDS011;36117;46.680;11.154;2022-11-20T15:10:39;9.25;;;4.07;;
41289;SDS011;36117;46.680;11.154;2022-11-20T15:13:12;6.70;;;3.45;;
41289;SDS011;36117;46.680;11.154;2022-11-20T15:15:47;6.63;;;2.83;;
41289;SDS011;36117;46.680;11.154;2022-11-20T15:18:20;10.15;;;1.38;;
41289;SDS011;36117;46.680;11.154;2022-11-20T15:20:49;6.10;;;3.60;;
41289;SDS011;36117;46.680;11.154;2022-11-20T15:23:16;10.20;;;3.20;;
41289;SDS011;36117;46.680;11.154;2022-11-20T15:25:46;2.92;;;1.83;;
41289;SDS011;36117;46.680;11.154;2022-11-20T15:28:16;6.28;;;2.40;;
41289;SDS011;36117;46.680;11.154;2022-11-20T15:30:48;11.98;;;3.40;;
41289;SDS011;36117;46.680;11.154;2022-11-20T15:33:15;6.10;;;2.67;;
41289;SDS011;36117;46.680;11.154;2022-11-20T15:35:41;3.40;;;1.52;;
41289;SDS011;36117;46.680;11.154;2022-11-20T15:38:07;3.47;;;2.00;;
41289;SDS011;36117;46.680;11.154;2022-11-20T15:40:33;6.63;;;3.28;;
41289;SDS011;36117;46.680;11.154;2022-11-20T15:42:59;7.53;;;3.58;;
41289;SDS011;36117;46.680;11.154;2022-11-20T15:48:11;5.75;;;3.13;;
41289;SDS011;36117;46.680;11.154;2022-11-20T15:50:48;6.43;;;2.05;;
41289;SDS011;36117;46.680;11.154;2022-11-20T15:53:21;8.75;;;2.38;;
41289;SDS011;36117;46.680;11.154;2022-11-20T15:55:46;3.20;;;1.50;;
41289;SDS011;36117;46.680;11.154;2022-11-20T15:58:12;5.45;;;2.22;;
41289;SDS011;36117;46.680;11.154;2022-11-20T16:00:38;4.88;;;2.85;;
41289;SDS011;36117;46.680;11.154;2022-11-20T16:03:04;5.60;;;3.28;;
41289;SDS011;36117;46.680;11.154;2022-11-20T16:05:29;5.78;;;2.45;;
41289;SDS011;36117;46.680;11.154;2022-11-20T16:07:56;3.42;;;1.45;;
41289;SDS011;36117;46.680;11.154;2022-11-20T16:10:22;2.15;;;1.40;;
41289;SDS011;36117;46.680;11.154;2022-11-20T16:12:48;1.75;;;1.35;;
41289;SDS011;36117;46.680;11.154;2022-11-20T16:15:33;0.90;;;0.85;;
41289;SDS011;36117;46.680;11.154;2022-11-20T16:18:12;3.08;;;1.00;;
41289;SDS011;36117;46.680;11.154;2022-11-20T16:20:40;0.60;;;0.60;;
41289;SDS011;36117;46.680;11.154;2022-11-20T16:23:06;4.78;;;1.05;;
41289;SDS011;36117;46.680;11.154;2022-11-20T16:25:32;5.93;;;2.45;;
41289;SDS011;36117;46.680;11.154;2022-11-20T16:27:58;6.18;;;2.25;;
41289;SDS011;36117;46.680;11.154;2022-11-20T16:30:24;4.93;;;2.38;;
41289;SDS011;36117;46.680;11.154;2022-11-20T16:32:49;2.20;;;1.80;;
41289;SDS011;36117;46.680;11.154;2022-11-20T16:35:15;2.13;;;1.75;;
41289;SDS011;36117;46.680;11.154;2022-11-20T16:37:41;4.60;;;2.55;;
41289;SDS011;36117;46.680;11.154;2022-11-20T16:40:08;2.78;;;1.95;;
41289;SDS011;36117;46.680;11.154;2022-11-20T16:42:36;7.07;;;2.78;;
41289;SDS011;36117;46.680;11.154;2022-11-20T16:45:02;4.63;;;1.40;;
41289;SDS011;36117;46.680;11.154;2022-11-20T16:47:35;4.88;;;2.78;;
41289;SDS011;36117;46.680;11.154;2022-11-20T16:50:01;4.55;;;2.33;;
41289;SDS011;36117;46.680;11.154;2022-11-20T16:52:29;6.50;;;2.55;;